createdAt,value
2022-09-28T00:00:26.424Z,14.08
2022-09-28T00:01:01.074Z,14.08
2022-09-28T00:01:33.265Z,14.08
2022-09-28T00:02:05.551Z,14.09
2022-09-28T00:02:40.836Z,14.10
2022-09-28T00:03:13.872Z,14.09
2022-09-28T00:03:46.773Z,14.09
2022-09-28T00:04:21.569Z,14.10
2022-09-28T00:04:53.644Z,14.11
2022-09-28T00:05:27.123Z,14.12
2022-09-28T00:06:02.578Z,14.11
2022-09-28T00:06:37.226Z,14.13
2022-09-28T00:07:09.306Z,14.11
2022-09-28T00:07:44.045Z,14.12
2022-09-28T00:08:18.852Z,14.10
2022-09-28T00:08:51.846Z,14.09
2022-09-28T00:09:23.971Z,14.11
2022-09-28T00:09:58.630Z,14.12
2022-09-28T00:10:30.767Z,14.11
2022-09-28T00:11:03.810Z,14.11
2022-09-28T00:11:38.692Z,14.13
2022-09-28T00:12:11.917Z,14.12
2022-09-28T00:12:44.001Z,14.13
2022-09-28T00:13:18.735Z,14.14
2022-09-28T00:13:52.446Z,14.14
2022-09-28T00:14:24.674Z,14.14
2022-09-28T00:14:59.589Z,14.14
2022-09-28T00:15:31.804Z,14.15
2022-09-28T00:16:05.229Z,14.14
2022-09-28T00:16:42.374Z,14.14
2022-09-28T00:17:16.916Z,14.12
2022-09-28T00:17:48.998Z,14.10
2022-09-28T00:18:24.249Z,14.11
2022-09-28T00:18:56.583Z,14.09
2022-09-28T00:19:31.284Z,14.08
2022-09-28T00:20:05.576Z,14.06
2022-09-28T00:20:37.849Z,14.05
2022-09-28T00:21:14.455Z,14.02
2022-09-28T00:21:46.690Z,13.99
2022-09-28T00:22:18.852Z,13.96
2022-09-28T00:22:56.103Z,13.95
2022-09-28T00:23:28.254Z,13.93
2022-09-28T00:24:15.893Z,13.93
2022-09-28T00:24:50.791Z,13.89
2022-09-28T00:25:25.051Z,13.88
2022-09-28T00:26:01.407Z,13.87
2022-09-28T00:26:34.286Z,13.90
2022-09-28T00:27:09.665Z,13.86
2022-09-28T00:27:42.317Z,13.87
2022-09-28T00:28:14.409Z,13.86
2022-09-28T00:28:46.526Z,13.86
2022-09-28T00:29:26.692Z,13.86
2022-09-28T00:29:59.098Z,13.82
2022-09-28T00:30:31.597Z,13.83
2022-09-28T00:31:06.329Z,13.83
2022-09-28T00:31:38.558Z,13.83
2022-09-28T00:32:13.473Z,13.83
2022-09-28T00:32:48.113Z,13.83
2022-09-28T00:33:20.186Z,13.82
2022-09-28T00:33:53.137Z,13.80
2022-09-28T00:34:28.005Z,13.79
2022-09-28T00:35:00.078Z,13.77
2022-09-28T00:35:32.183Z,13.76
2022-09-28T00:36:08.485Z,13.75
2022-09-28T00:36:44.305Z,13.75
2022-09-28T00:37:21.746Z,13.73
2022-09-28T00:37:56.477Z,13.73
2022-09-28T00:38:29.659Z,13.72
2022-09-28T00:39:06.684Z,13.73
2022-09-28T00:39:43.559Z,13.72
2022-09-28T00:40:16.118Z,13.69
2022-09-28T00:40:48.234Z,13.68
2022-09-28T00:41:20.405Z,13.69
2022-09-28T00:41:55.115Z,13.66
2022-09-28T00:42:27.546Z,13.68
2022-09-28T00:43:00.065Z,13.69
2022-09-28T00:43:34.798Z,13.71
2022-09-28T00:44:34.534Z,13.69
2022-09-28T00:45:11.795Z,13.68
2022-09-28T00:45:44.509Z,13.69
2022-09-28T00:46:21.389Z,13.71
2022-09-28T00:46:56.792Z,13.72
2022-09-28T00:47:42.643Z,13.74
2022-09-28T00:48:15.043Z,13.74
2022-09-28T00:48:54.568Z,13.77
2022-09-28T00:49:35.823Z,13.77
2022-09-28T00:50:14.237Z,13.78
2022-09-28T00:50:46.573Z,13.78
2022-09-28T00:51:21.567Z,13.81
2022-09-28T00:51:53.743Z,13.81
2022-09-28T00:52:30.237Z,13.83
2022-09-28T00:53:14.509Z,13.84
2022-09-28T00:53:47.613Z,13.84
2022-09-28T00:54:19.782Z,13.86
2022-09-28T00:54:56.208Z,13.88
2022-09-28T00:55:35.997Z,13.89
2022-09-28T00:56:11.556Z,13.88
2022-09-28T00:56:50.131Z,13.88
2022-09-28T00:57:23.443Z,13.90
2022-09-28T00:58:02.769Z,13.92
2022-09-28T00:58:39.617Z,13.93
2022-09-28T00:59:11.729Z,13.93
2022-09-28T00:59:47.187Z,13.90
2022-09-28T01:00:19.817Z,13.96
2022-09-28T01:00:56.122Z,13.97
2022-09-28T01:01:28.700Z,13.98
2022-09-28T01:02:01.774Z,13.98
2022-09-28T01:02:36.606Z,13.96
2022-09-28T01:03:09.165Z,13.95
2022-09-28T01:03:45.483Z,13.94
2022-09-28T01:04:21.292Z,13.93
2022-09-28T01:04:53.826Z,13.92
2022-09-28T01:05:30.263Z,13.92
2022-09-28T01:06:05.136Z,13.88
2022-09-28T01:06:39.141Z,13.88
2022-09-28T01:07:15.509Z,13.88
2022-09-28T01:07:48.846Z,13.88
2022-09-28T01:08:28.764Z,13.87
2022-09-28T01:09:04.622Z,13.85
2022-09-28T01:09:39.390Z,13.87
2022-09-28T01:10:14.344Z,13.87
2022-09-28T01:10:47.082Z,13.86
2022-09-28T01:11:22.562Z,13.83
2022-09-28T01:11:57.763Z,13.86
2022-09-28T01:12:30.250Z,13.86
2022-09-28T01:13:02.533Z,13.86
2022-09-28T01:13:37.307Z,13.86
2022-09-28T01:14:12.354Z,13.86
2022-09-28T01:14:45.200Z,13.84
2022-09-28T01:15:21.897Z,13.84
2022-09-28T01:16:03.618Z,13.82
2022-09-28T01:16:42.338Z,13.80
2022-09-28T01:17:33.623Z,13.76
2022-09-28T01:18:17.504Z,13.77
2022-09-28T01:19:01.548Z,13.77
2022-09-28T01:20:09.290Z,13.74
2022-09-28T01:21:00.202Z,13.70
2022-09-28T01:21:39.733Z,13.70
2022-09-28T01:22:26.769Z,13.69
2022-09-28T01:23:32.519Z,13.67
2022-09-28T01:24:22.627Z,13.66
2022-09-28T01:25:01.544Z,13.65
2022-09-28T01:25:41.515Z,13.66
2022-09-28T01:26:56.623Z,13.64
2022-09-28T01:27:32.340Z,13.65
2022-09-28T01:28:08.027Z,13.67
2022-09-28T01:28:46.506Z,13.71
2022-09-28T01:29:29.710Z,13.71
2022-09-28T01:30:08.605Z,13.74
2022-09-28T01:30:47.414Z,13.75
2022-09-28T01:31:26.125Z,13.76
2022-09-28T01:32:13.582Z,13.75
2022-09-28T01:32:51.493Z,13.74
2022-09-28T01:33:28.420Z,13.76
2022-09-28T01:34:07.998Z,13.76
2022-09-28T01:34:47.387Z,13.77
2022-09-28T01:35:27.906Z,13.74
2022-09-28T01:36:03.170Z,13.68
2022-09-28T01:36:42.887Z,13.69
2022-09-28T01:37:22.697Z,13.70
2022-09-28T01:38:00.691Z,13.69
2022-09-28T01:38:37.920Z,13.70
2022-09-28T01:39:16.162Z,13.70
2022-09-28T01:39:50.286Z,13.72
2022-09-28T01:40:27.977Z,13.72
2022-09-28T01:41:01.239Z,13.73
2022-09-28T01:41:36.908Z,13.74
2022-09-28T01:42:20.306Z,13.75
2022-09-28T01:42:57.842Z,13.73
2022-09-28T01:43:35.523Z,13.74
2022-09-28T01:44:15.119Z,13.73
2022-09-28T01:44:53.470Z,13.72
2022-09-28T01:45:31.401Z,13.73
2022-09-28T01:46:14.571Z,13.74
2022-09-28T01:46:49.425Z,13.73
2022-09-28T01:47:24.360Z,13.75
2022-09-28T01:48:03.162Z,13.75
2022-09-28T01:48:40.398Z,13.76
2022-09-28T01:49:18.740Z,13.77
2022-09-28T01:50:01.112Z,13.77
2022-09-28T01:50:38.147Z,13.77
2022-09-28T01:51:15.065Z,13.79
2022-09-28T01:51:55.475Z,13.79
2022-09-28T01:52:34.166Z,13.80
2022-09-28T01:53:15.996Z,13.80
2022-09-28T01:53:56.074Z,13.81
2022-09-28T01:54:42.130Z,13.81
2022-09-28T01:55:24.319Z,13.83
2022-09-28T01:56:03.179Z,13.83
2022-09-28T01:56:40.560Z,13.86
2022-09-28T01:57:22.574Z,13.86
2022-09-28T01:58:01.079Z,13.87
2022-09-28T01:58:41.431Z,13.87
2022-09-28T01:59:17.690Z,13.88
2022-09-28T01:59:57.816Z,13.89
2022-09-28T02:00:33.152Z,13.89
2022-09-28T02:01:13.228Z,13.92
2022-09-28T02:01:52.154Z,13.92
2022-09-28T02:02:31.187Z,13.93
2022-09-28T02:03:11.118Z,13.94
2022-09-28T02:04:02.527Z,13.92
2022-09-28T02:04:42.009Z,13.93
2022-09-28T02:05:18.569Z,13.94
2022-09-28T02:05:58.913Z,13.96
2022-09-28T02:06:38.873Z,13.96
2022-09-28T02:07:16.709Z,13.94
2022-09-28T02:07:59.717Z,13.95
2022-09-28T02:08:35.286Z,13.95
2022-09-28T02:09:11.835Z,13.95
2022-09-28T02:09:58.563Z,13.96
2022-09-28T02:10:33.673Z,13.95
2022-09-28T02:11:11.674Z,13.98
2022-09-28T02:11:53.701Z,13.98
2022-09-28T02:12:33.787Z,13.97
2022-09-28T02:13:11.278Z,13.97
2022-09-28T02:13:49.842Z,13.98
2022-09-28T02:14:23.818Z,13.98
2022-09-28T02:15:06.686Z,14.00
2022-09-28T02:15:46.002Z,13.99
2022-09-28T02:16:22.992Z,14.00
2022-09-28T02:16:56.722Z,14.00
2022-09-28T02:17:37.644Z,14.00
2022-09-28T02:18:10.829Z,14.01
2022-09-28T02:18:45.008Z,14.02
2022-09-28T02:19:24.384Z,14.04
2022-09-28T02:19:56.645Z,14.01
2022-09-28T02:20:34.859Z,14.03
2022-09-28T02:21:13.371Z,14.02
2022-09-28T02:21:54.035Z,14.02
2022-09-28T02:22:37.450Z,14.00
2022-09-28T02:23:10.894Z,13.97
2022-09-28T02:23:52.483Z,14.01
2022-09-28T02:24:33.769Z,13.99
2022-09-28T02:25:11.036Z,13.99
2022-09-28T02:25:49.843Z,14.00
2022-09-28T02:26:32.373Z,14.00
2022-09-28T02:27:12.884Z,14.00
2022-09-28T02:27:59.814Z,13.98
2022-09-28T02:28:32.738Z,13.97
2022-09-28T02:29:05.160Z,13.98
2022-09-28T02:29:39.857Z,13.98
2022-09-28T02:30:12.607Z,13.98
2022-09-28T02:30:45.264Z,13.98
2022-09-28T02:31:21.542Z,13.99
2022-09-28T02:31:53.917Z,14.00
2022-09-28T02:32:28.789Z,14.00
2022-09-28T02:33:10.297Z,14.01
2022-09-28T02:33:44.524Z,14.00
2022-09-28T02:34:16.679Z,14.02
2022-09-28T02:34:51.360Z,14.04
2022-09-28T02:35:23.654Z,14.02
2022-09-28T02:35:57.742Z,14.04
2022-09-28T02:36:36.315Z,14.04
2022-09-28T02:37:08.499Z,14.05
2022-09-28T02:37:41.259Z,14.05
2022-09-28T02:38:17.875Z,14.06
2022-09-28T02:38:50.038Z,14.05
2022-09-28T02:39:22.567Z,14.08
2022-09-28T02:39:57.281Z,14.08
2022-09-28T02:40:33.907Z,14.08
2022-09-28T02:41:15.963Z,14.08
2022-09-28T02:42:04.607Z,14.07
2022-09-28T02:42:46.440Z,14.05
2022-09-28T02:43:29.718Z,14.03
2022-09-28T02:44:15.457Z,14.01
2022-09-28T02:45:00.930Z,13.98
2022-09-28T02:45:49.191Z,13.95
2022-09-28T02:46:29.947Z,13.93
2022-09-28T02:47:23.040Z,13.92
2022-09-28T02:48:07.785Z,13.90
2022-09-28T02:49:30.244Z,13.89
2022-09-28T02:50:06.476Z,13.87
2022-09-28T02:50:44.997Z,13.82
2022-09-28T02:51:26.897Z,13.85
2022-09-28T02:52:16.272Z,13.88
2022-09-28T02:53:10.920Z,13.88
2022-09-28T02:54:06.379Z,13.86
2022-09-28T02:54:59.466Z,13.88
2022-09-28T02:55:44.560Z,13.89
2022-09-28T02:56:39.176Z,13.90
2022-09-28T02:57:20.458Z,13.90
2022-09-28T02:58:10.748Z,13.92
2022-09-28T02:58:59.885Z,13.91
2022-09-28T02:59:44.219Z,13.92
2022-09-28T03:00:19.326Z,13.92
2022-09-28T03:01:04.273Z,13.93
2022-09-28T03:01:44.769Z,13.93
2022-09-28T03:02:20.853Z,13.86
2022-09-28T03:03:04.968Z,13.86
2022-09-28T03:03:47.190Z,13.87
2022-09-28T03:04:29.425Z,13.88
2022-09-28T03:05:16.737Z,13.87
2022-09-28T03:05:58.183Z,13.88
2022-09-28T03:06:40.292Z,13.89
2022-09-28T03:07:22.684Z,13.88
2022-09-28T03:07:59.609Z,13.88
2022-09-28T03:08:40.966Z,13.89
2022-09-28T03:09:21.729Z,13.88
2022-09-28T03:09:59.943Z,13.89
2022-09-28T03:10:41.793Z,13.88
2022-09-28T03:11:17.046Z,13.89
2022-09-28T03:11:56.254Z,13.89
2022-09-28T03:12:33.324Z,13.90
2022-09-28T03:13:07.572Z,13.90
2022-09-28T03:13:41.660Z,13.90
2022-09-28T03:14:19.669Z,13.90
2022-09-28T03:15:09.780Z,13.87
2022-09-28T03:15:48.521Z,13.88
2022-09-28T03:16:21.458Z,13.88
2022-09-28T03:16:54.785Z,13.90
2022-09-28T03:17:29.587Z,13.93
2022-09-28T03:18:02.071Z,13.95
2022-09-28T03:18:34.239Z,13.95
2022-09-28T03:19:08.930Z,13.98
2022-09-28T03:19:41.015Z,14.00
2022-09-28T03:20:13.186Z,14.01
2022-09-28T03:20:49.626Z,14.02
2022-09-28T03:21:21.898Z,14.03
2022-09-28T03:21:55.315Z,14.04
2022-09-28T03:22:30.110Z,14.06
2022-09-28T03:23:57.794Z,14.05
2022-09-28T03:24:29.857Z,14.06
2022-09-28T03:25:02.017Z,14.07
2022-09-28T03:25:36.826Z,14.10
2022-09-28T03:26:09.278Z,14.09
2022-09-28T03:26:41.593Z,14.11
2022-09-28T03:27:17.322Z,14.12
2022-09-28T03:27:49.516Z,14.12
2022-09-28T03:28:22.218Z,14.14
2022-09-28T03:28:57.135Z,14.13
2022-09-28T03:29:34.551Z,14.13
2022-09-28T03:30:14.267Z,14.13
2022-09-28T03:30:49.357Z,14.12
2022-09-28T03:31:21.468Z,14.13
2022-09-28T03:31:56.217Z,14.13
2022-09-28T03:32:28.609Z,14.14
2022-09-28T03:33:02.632Z,14.15
2022-09-28T03:33:39.728Z,14.14
2022-09-28T03:34:11.917Z,14.14
2022-09-28T03:34:44.010Z,14.15
2022-09-28T03:35:19.003Z,14.16
2022-09-28T03:35:51.420Z,14.15
2022-09-28T03:36:26.607Z,14.17
2022-09-28T03:36:58.713Z,14.17
2022-09-28T03:37:31.166Z,14.17
2022-09-28T03:38:06.049Z,14.17
2022-09-28T03:38:40.815Z,14.18
2022-09-28T03:39:12.939Z,14.18
2022-09-28T03:39:47.623Z,14.18
2022-09-28T03:40:19.746Z,14.18
2022-09-28T03:40:53.747Z,14.20
2022-09-28T03:41:29.328Z,14.18
2022-09-28T03:42:01.749Z,14.19
2022-09-28T03:42:37.677Z,14.18
2022-09-28T03:43:12.704Z,14.19
2022-09-28T03:43:45.160Z,14.19
2022-09-28T03:44:19.156Z,14.20
2022-09-28T03:44:56.926Z,14.20
2022-09-28T03:45:29.164Z,14.19
2022-09-28T03:46:02.349Z,14.18
2022-09-28T03:46:39.538Z,14.19
2022-09-28T03:47:15.876Z,14.19
2022-09-28T03:47:48.788Z,14.19
2022-09-28T03:48:31.878Z,14.20
2022-09-28T03:49:05.138Z,14.18
2022-09-28T03:49:37.385Z,14.19
2022-09-28T03:50:12.834Z,14.20
2022-09-28T03:50:45.011Z,14.19
2022-09-28T03:51:17.095Z,14.20
2022-09-28T03:51:51.771Z,14.18
2022-09-28T03:52:23.909Z,14.19
2022-09-28T03:52:56.017Z,14.19
2022-09-28T03:53:31.674Z,14.20
2022-09-28T03:54:05.815Z,14.18
2022-09-28T03:54:38.155Z,14.19
2022-09-28T03:55:13.707Z,14.20
2022-09-28T03:55:46.054Z,14.19
2022-09-28T03:56:18.307Z,14.19
2022-09-28T03:56:53.818Z,14.21
2022-09-28T03:57:26.088Z,14.19
2022-09-28T03:57:58.207Z,14.21
2022-09-28T03:58:33.209Z,14.21
2022-09-28T03:59:05.783Z,14.21
2022-09-28T03:59:38.019Z,14.22
2022-09-28T04:00:16.288Z,14.22
2022-09-28T04:00:49.280Z,14.23
2022-09-28T04:01:21.590Z,14.22
2022-09-28T04:01:57.222Z,14.24
2022-09-28T04:02:29.508Z,14.24
2022-09-28T04:03:01.671Z,14.24
2022-09-28T04:03:37.020Z,14.24
2022-09-28T04:04:12.037Z,14.24
2022-09-28T04:04:44.211Z,14.23
2022-09-28T04:05:19.126Z,14.23
2022-09-28T04:05:52.622Z,14.23
2022-09-28T04:06:24.918Z,14.25
2022-09-28T04:06:57.072Z,14.23
2022-09-28T04:07:32.631Z,14.24
2022-09-28T04:08:04.824Z,14.27
2022-09-28T04:08:37.014Z,14.25
2022-09-28T04:09:11.701Z,14.24
2022-09-28T04:09:43.846Z,14.24
2022-09-28T04:10:17.197Z,14.24
2022-09-28T04:10:51.949Z,14.24
2022-09-28T04:11:24.378Z,14.23
2022-09-28T04:12:03.891Z,14.28
2022-09-28T04:12:39.709Z,14.21
2022-09-28T04:13:12.434Z,14.23
2022-09-28T04:13:51.074Z,14.23
2022-09-28T04:14:23.543Z,14.22
2022-09-28T04:14:55.662Z,14.22
2022-09-28T04:15:32.932Z,14.23
2022-09-28T04:16:05.603Z,14.22
2022-09-28T04:16:39.600Z,14.22
2022-09-28T04:17:18.051Z,14.21
2022-09-28T04:17:50.335Z,14.23
2022-09-28T04:18:42.551Z,14.18
2022-09-28T04:19:25.349Z,14.16
2022-09-28T04:20:18.018Z,14.16
2022-09-28T04:21:09.425Z,14.13
2022-09-28T04:21:59.200Z,14.12
2022-09-28T04:22:34.806Z,14.14
2022-09-28T04:23:07.025Z,14.16
2022-09-28T04:23:40.241Z,14.16
2022-09-28T04:24:15.078Z,14.17
2022-09-28T04:24:47.314Z,14.19
2022-09-28T04:25:19.438Z,14.19
2022-09-28T04:25:55.239Z,14.18
2022-09-28T04:26:28.487Z,14.19
2022-09-28T04:27:16.876Z,14.20
2022-09-28T04:28:04.841Z,14.18
2022-09-28T04:28:51.992Z,14.16
2022-09-28T04:29:27.526Z,14.15
2022-09-28T04:30:01.575Z,14.16
2022-09-28T04:30:37.302Z,14.17
2022-09-28T04:31:14.073Z,14.15
2022-09-28T04:31:49.868Z,14.16
2022-09-28T04:32:24.761Z,14.14
2022-09-28T04:32:59.437Z,14.16
2022-09-28T04:33:34.433Z,14.15
2022-09-28T04:34:06.739Z,14.16
2022-09-28T04:34:44.082Z,14.17
2022-09-28T04:35:16.741Z,14.17
2022-09-28T04:35:48.909Z,14.18
2022-09-28T04:36:25.163Z,14.19
2022-09-28T04:36:57.303Z,14.19
2022-09-28T04:37:31.391Z,14.19
2022-09-28T04:38:06.206Z,14.20
2022-09-28T04:38:52.321Z,14.19
2022-09-28T04:39:27.483Z,14.19
2022-09-28T04:40:04.576Z,14.21
2022-09-28T04:40:37.313Z,14.21
2022-09-28T04:41:09.829Z,14.22
2022-09-28T04:41:45.187Z,14.22
2022-09-28T04:42:17.719Z,14.26
2022-09-28T04:42:54.082Z,14.24
2022-09-28T04:43:28.826Z,14.24
2022-09-28T04:44:01.189Z,14.24
2022-09-28T04:44:36.012Z,14.25
2022-09-28T04:45:12.624Z,14.24
2022-09-28T04:45:54.278Z,14.25
2022-09-28T04:46:27.169Z,14.23
2022-09-28T04:47:21.998Z,14.22
2022-09-28T04:48:12.742Z,14.20
2022-09-28T04:49:20.011Z,14.16
2022-09-28T04:49:57.148Z,14.17
2022-09-28T04:50:40.134Z,14.17
2022-09-28T04:51:20.477Z,14.16
2022-09-28T04:51:55.152Z,14.20
2022-09-28T04:52:27.394Z,14.20
2022-09-28T04:53:00.977Z,14.22
2022-09-28T04:53:35.878Z,14.24
2022-09-28T04:54:07.980Z,14.26
2022-09-28T04:54:40.079Z,14.27
2022-09-28T04:55:15.740Z,14.27
2022-09-28T04:55:58.982Z,14.26
2022-09-28T04:56:33.670Z,14.26
2022-09-28T04:57:06.270Z,14.27
2022-09-28T04:57:38.400Z,14.26
2022-09-28T04:58:10.502Z,14.27
2022-09-28T04:58:48.998Z,14.29
2022-09-28T04:59:24.437Z,14.27
2022-09-28T04:59:56.584Z,14.30
2022-09-28T05:00:35.990Z,14.29
2022-09-28T05:01:37.121Z,14.24
2022-09-28T05:02:30.693Z,14.20
2022-09-28T05:03:26.618Z,14.20
2022-09-28T05:04:36.496Z,14.18
2022-09-28T05:05:43.501Z,14.19
2022-09-28T05:06:37.479Z,14.20
2022-09-28T05:07:13.065Z,14.23
2022-09-28T05:07:46.132Z,14.26
2022-09-28T05:08:21.118Z,14.27
2022-09-28T05:08:54.021Z,14.27
2022-09-28T05:09:28.930Z,14.29
2022-09-28T05:10:01.691Z,14.30
2022-09-28T05:10:36.345Z,14.32
2022-09-28T05:11:14.766Z,14.36
2022-09-28T05:11:49.444Z,14.37
2022-09-28T05:12:26.817Z,14.39
2022-09-28T05:12:59.019Z,14.40
2022-09-28T05:13:33.586Z,14.43
2022-09-28T05:14:08.595Z,14.45
2022-09-28T05:14:41.464Z,14.48
2022-09-28T05:15:13.542Z,14.51
2022-09-28T05:15:48.384Z,14.52
2022-09-28T05:16:21.475Z,14.54
2022-09-28T05:17:37.320Z,14.46
2022-09-28T05:18:14.787Z,14.48
2022-09-28T05:18:58.065Z,14.53
2022-09-28T05:19:30.507Z,14.55
2022-09-28T05:20:09.217Z,14.56
2022-09-28T05:20:44.424Z,14.58
2022-09-28T05:21:16.594Z,14.60
2022-09-28T05:21:49.286Z,14.62
2022-09-28T05:22:24.470Z,14.65
2022-09-28T05:22:56.703Z,14.66
2022-09-28T05:23:28.961Z,14.68
2022-09-28T05:24:07.745Z,14.70
2022-09-28T05:24:42.871Z,14.69
2022-09-28T05:25:15.301Z,14.70
2022-09-28T05:26:08.900Z,14.70
2022-09-28T05:26:41.558Z,14.72
2022-09-28T05:27:15.454Z,14.72
2022-09-28T05:27:58.574Z,14.74
2022-09-28T05:28:42.857Z,14.72
2022-09-28T05:29:30.101Z,14.74
2022-09-28T05:30:22.886Z,14.73
2022-09-28T05:31:33.103Z,14.70
2022-09-28T05:32:26.445Z,14.71
2022-09-28T05:33:21.286Z,14.71
2022-09-28T05:34:01.482Z,14.71
2022-09-28T05:34:36.497Z,14.72
2022-09-28T05:35:11.185Z,14.74
2022-09-28T05:35:55.942Z,14.74
2022-09-28T05:36:32.592Z,14.75
2022-09-28T05:37:04.698Z,14.77
2022-09-28T05:37:39.530Z,14.81
2022-09-28T05:38:11.842Z,14.83
2022-09-28T05:38:43.990Z,14.85
2022-09-28T05:39:18.858Z,14.86
2022-09-28T05:39:50.991Z,14.88
2022-09-28T05:40:23.625Z,14.90
2022-09-28T05:41:01.156Z,14.92
2022-09-28T05:41:35.577Z,14.90
2022-09-28T05:42:08.111Z,14.92
2022-09-28T05:42:40.862Z,14.91
2022-09-28T05:43:15.665Z,14.92
2022-09-28T05:43:48.834Z,14.91
2022-09-28T05:44:23.574Z,14.91
2022-09-28T05:44:58.429Z,14.90
2022-09-28T05:45:30.617Z,14.90
2022-09-28T05:46:05.515Z,14.88
2022-09-28T05:46:39.283Z,14.87
2022-09-28T05:47:11.449Z,14.87
2022-09-28T05:47:47.605Z,14.86
2022-09-28T05:48:26.246Z,14.84
2022-09-28T05:48:59.775Z,14.83
2022-09-28T05:49:35.186Z,14.83
2022-09-28T05:50:09.670Z,14.83
2022-09-28T05:50:41.968Z,14.83
2022-09-28T05:51:16.682Z,14.83
2022-09-28T05:51:48.843Z,14.83
2022-09-28T05:52:23.612Z,14.83
2022-09-28T05:52:59.938Z,14.82
2022-09-28T05:53:34.660Z,14.82
2022-09-28T05:54:06.868Z,14.81
2022-09-28T05:54:43.143Z,14.81
2022-09-28T05:55:18.846Z,14.79
2022-09-28T05:55:51.110Z,14.79
2022-09-28T05:56:25.941Z,14.78
2022-09-28T05:56:58.329Z,14.77
2022-09-28T05:57:31.913Z,14.77
2022-09-28T05:58:08.809Z,14.77
2022-09-28T05:58:40.898Z,14.77
2022-09-28T05:59:14.239Z,14.78
2022-09-28T05:59:49.669Z,14.78
2022-09-28T06:00:21.827Z,14.81
2022-09-28T06:01:01.438Z,14.79
2022-09-28T06:01:35.112Z,14.82
2022-09-28T06:02:08.212Z,14.83
2022-09-28T06:02:43.305Z,14.84
2022-09-28T06:03:18.027Z,14.85
2022-09-28T06:03:55.485Z,14.88
2022-09-28T06:04:27.798Z,14.89
2022-09-28T06:05:00.022Z,14.90
2022-09-28T06:05:34.991Z,14.91
2022-09-28T06:06:07.238Z,14.92
2022-09-28T06:06:48.595Z,14.93
2022-09-28T06:07:23.002Z,14.92
2022-09-28T06:07:57.183Z,14.94
2022-09-28T06:08:34.042Z,14.94
2022-09-28T06:09:21.682Z,14.91
2022-09-28T06:10:18.601Z,14.91
2022-09-28T06:10:50.845Z,14.94
2022-09-28T06:11:25.348Z,14.97
2022-09-28T06:12:01.070Z,14.99
2022-09-28T06:12:59.369Z,14.99
2022-09-28T06:13:35.123Z,15.01
2022-09-28T06:14:07.767Z,15.05
2022-09-28T06:14:40.388Z,15.07
2022-09-28T06:15:15.070Z,15.07
2022-09-28T06:15:48.102Z,15.09
2022-09-28T06:16:20.819Z,15.10
2022-09-28T06:16:55.556Z,15.11
2022-09-28T06:17:27.976Z,15.09
2022-09-28T06:18:22.714Z,15.05
2022-09-28T06:19:22.198Z,15.01
2022-09-28T06:20:15.466Z,14.96
2022-09-28T06:21:02.720Z,14.98
2022-09-28T06:21:43.810Z,14.98
2022-09-28T06:22:16.125Z,14.99
2022-09-28T06:23:00.996Z,14.99
2022-09-28T06:23:33.124Z,15.00
2022-09-28T06:24:05.709Z,15.01
2022-09-28T06:24:40.522Z,15.03
2022-09-28T06:25:12.764Z,15.04
2022-09-28T06:25:44.912Z,15.05
2022-09-28T06:26:20.174Z,15.06
2022-09-28T06:26:52.254Z,15.07
2022-09-28T06:27:25.327Z,15.09
2022-09-28T06:28:01.766Z,15.09
2022-09-28T06:28:33.879Z,15.12
2022-09-28T06:29:06.046Z,15.13
2022-09-28T06:29:40.794Z,15.15
2022-09-28T06:30:13.379Z,15.18
2022-09-28T06:30:45.809Z,15.19
2022-09-28T06:31:25.061Z,15.21
2022-09-28T06:31:57.199Z,15.22
2022-09-28T06:32:29.915Z,15.24
2022-09-28T06:33:05.304Z,15.27
2022-09-28T06:33:38.713Z,15.28
2022-09-28T06:34:11.764Z,15.30
2022-09-28T06:34:54.029Z,15.33
2022-09-28T06:35:30.920Z,15.33
2022-09-28T06:36:05.632Z,15.35
2022-09-28T06:36:37.795Z,15.35
2022-09-28T06:37:09.915Z,15.38
2022-09-28T06:37:47.409Z,15.39
2022-09-28T06:38:19.697Z,15.36
2022-09-28T06:38:56.145Z,15.35
2022-09-28T06:39:28.611Z,15.34
2022-09-28T06:40:01.242Z,15.34
2022-09-28T06:40:36.385Z,15.33
2022-09-28T06:41:09.980Z,15.32
2022-09-28T06:41:42.909Z,15.32
2022-09-28T06:42:23.489Z,15.29
2022-09-28T06:43:18.022Z,15.23
2022-09-28T06:44:08.735Z,15.17
2022-09-28T06:45:03.011Z,15.13
2022-09-28T06:45:54.220Z,15.10
2022-09-28T06:46:33.286Z,15.08
2022-09-28T06:47:05.510Z,15.07
2022-09-28T06:47:57.558Z,15.04
2022-09-28T06:48:38.211Z,15.02
2022-09-28T06:49:19.230Z,15.01
2022-09-28T06:50:14.660Z,14.98
2022-09-28T06:51:16.045Z,14.94
2022-09-28T06:52:02.804Z,14.94
2022-09-28T06:53:04.310Z,14.93
2022-09-28T06:53:55.541Z,14.92
2022-09-28T06:54:44.415Z,14.94
2022-09-28T06:55:29.251Z,14.95
2022-09-28T06:56:02.875Z,14.97
2022-09-28T06:56:38.197Z,14.98
2022-09-28T06:57:10.435Z,14.98
2022-09-28T06:57:42.529Z,14.99
2022-09-28T06:58:19.782Z,15.01
2022-09-28T06:58:52.054Z,15.01
2022-09-28T06:59:24.178Z,15.00
2022-09-28T06:59:59.476Z,15.01
2022-09-28T07:00:34.308Z,15.02
2022-09-28T07:01:09.699Z,15.02
2022-09-28T07:01:48.909Z,15.00
2022-09-28T07:02:52.626Z,14.96
2022-09-28T07:03:43.555Z,14.94
2022-09-28T07:04:44.998Z,14.91
2022-09-28T07:05:45.180Z,14.90
2022-09-28T07:06:38.678Z,14.89
2022-09-28T07:07:29.654Z,14.87
2022-09-28T07:08:14.445Z,14.89
2022-09-28T07:09:01.717Z,14.89
2022-09-28T07:09:56.409Z,14.90
2022-09-28T07:10:47.483Z,14.89
2022-09-28T07:11:34.455Z,14.91
2022-09-28T07:12:16.154Z,14.92
2022-09-28T07:13:02.072Z,14.94
2022-09-28T07:13:50.978Z,14.97
2022-09-28T07:14:45.749Z,15.01
2022-09-28T07:15:20.474Z,15.02
2022-09-28T07:15:57.755Z,15.07
2022-09-28T07:16:55.546Z,15.07
2022-09-28T07:17:24.728Z,15.07
2022-09-28T07:18:02.498Z,15.09
2022-09-28T07:18:35.564Z,15.09
2022-09-28T07:19:10.414Z,15.11
2022-09-28T07:19:42.577Z,15.11
2022-09-28T07:20:19.244Z,15.10
2022-09-28T07:20:59.114Z,15.07
2022-09-28T07:21:31.367Z,15.07
2022-09-28T07:22:09.048Z,15.05
2022-09-28T07:22:45.418Z,15.05
2022-09-28T07:23:23.798Z,15.02
2022-09-28T07:24:33.856Z,14.98
2022-09-28T07:25:25.700Z,14.97
2022-09-28T07:26:29.187Z,14.92
2022-09-28T07:27:07.165Z,14.92
2022-09-28T07:28:03.273Z,14.89
2022-09-28T07:28:55.997Z,14.87
2022-09-28T07:29:45.610Z,14.88
2022-09-28T07:30:29.093Z,14.88
2022-09-28T07:31:28.194Z,14.83
2022-09-28T07:32:16.579Z,14.79
2022-09-28T07:33:14.614Z,14.78
2022-09-28T07:34:10.520Z,14.77
2022-09-28T07:35:08.076Z,14.78
2022-09-28T07:35:55.453Z,14.81
2022-09-28T07:36:39.210Z,14.83
2022-09-28T07:37:11.854Z,14.85
2022-09-28T07:37:46.509Z,14.89
2022-09-28T07:38:19.106Z,14.91
2022-09-28T07:38:53.804Z,14.95
2022-09-28T07:39:26.031Z,14.98
2022-09-28T07:40:13.158Z,15.01
2022-09-28T07:41:00.510Z,15.01
2022-09-28T07:41:32.788Z,15.03
2022-09-28T07:42:10.079Z,15.06
2022-09-28T07:42:42.513Z,15.08
2022-09-28T07:43:20.575Z,15.11
2022-09-28T07:43:56.707Z,15.12
2022-09-28T07:44:29.894Z,15.13
2022-09-28T07:45:03.725Z,15.15
2022-09-28T07:45:38.701Z,15.16
2022-09-28T07:46:12.449Z,15.16
2022-09-28T07:46:51.749Z,15.17
2022-09-28T07:47:35.111Z,15.16
2022-09-28T07:48:28.937Z,15.12
2022-09-28T07:49:08.492Z,15.12
2022-09-28T07:50:05.065Z,15.11
2022-09-28T07:51:11.948Z,15.09
2022-09-28T07:51:46.622Z,15.10
2022-09-28T07:52:51.033Z,15.09
2022-09-28T07:53:43.384Z,15.09
2022-09-28T07:54:39.548Z,15.09
2022-09-28T07:55:30.159Z,15.11
2022-09-28T07:56:21.200Z,15.13
2022-09-28T07:57:00.305Z,15.13
2022-09-28T07:58:01.260Z,15.11
2022-09-28T07:58:56.452Z,15.08
2022-09-28T07:59:49.977Z,15.06
2022-09-28T08:00:40.434Z,15.05
2022-09-28T08:01:16.678Z,15.07
2022-09-28T08:01:49.593Z,15.09
2022-09-28T08:02:22.681Z,15.10
2022-09-28T08:02:57.473Z,15.12
2022-09-28T08:03:29.872Z,15.11
2022-09-28T08:04:04.853Z,15.14
2022-09-28T08:04:37.013Z,15.16
2022-09-28T08:05:12.577Z,15.16
2022-09-28T08:05:45.803Z,15.19
2022-09-28T08:06:23.378Z,15.20
2022-09-28T08:06:55.485Z,15.23
2022-09-28T08:07:27.742Z,15.25
2022-09-28T08:08:11.309Z,15.25
2022-09-28T08:08:44.778Z,15.28
2022-09-28T08:09:21.403Z,15.29
2022-09-28T08:10:13.881Z,15.29
2022-09-28T08:11:10.716Z,15.27
2022-09-28T08:12:04.591Z,15.26
2022-09-28T08:13:00.558Z,15.29
2022-09-28T08:13:58.252Z,15.34
2022-09-28T08:14:55.219Z,15.40
2022-09-28T08:15:52.064Z,15.51